createdAt,value
2022-12-18T00:01:49.596Z,-2.23
2022-12-18T00:06:53.203Z,-1.89
2022-12-18T00:11:56.107Z,0.92
2022-12-18T00:17:01.881Z,2.97
2022-12-18T00:22:04.883Z,1.68
2022-12-18T00:27:07.892Z,-0.81
2022-12-18T00:32:10.805Z,-2.15
2022-12-18T00:37:19.741Z,-3.06
2022-12-18T00:42:41.795Z,-1.53
2022-12-18T00:47:44.653Z,1.30
2022-12-18T00:52:47.808Z,2.50
2022-12-18T00:57:53.383Z,0.34
2022-12-18T01:02:56.403Z,-1.85
2022-12-18T01:08:00.407Z,-1.26
2022-12-18T01:13:03.314Z,1.75
2022-12-18T01:18:06.727Z,2.13
2022-12-18T01:23:09.839Z,-0.43
2022-12-18T01:28:12.740Z,-2.19
2022-12-18T01:33:15.748Z,-3.33
2022-12-18T01:38:18.959Z,-3.01
2022-12-18T01:43:21.867Z,-0.77
2022-12-18T01:54:07.650Z,0.18
2022-12-18T01:59:12.597Z,-2.45
2022-12-18T02:04:27.485Z,-2.85
2022-12-18T02:10:00.900Z,0.30
2022-12-18T02:15:13.983Z,1.28
2022-12-18T02:20:37.021Z,-1.72
2022-12-18T02:26:18.151Z,-2.48
2022-12-18T02:31:27.253Z,1.28
2022-12-18T02:36:33.552Z,0.80
2022-12-18T02:41:37.719Z,-1.97
2022-12-18T02:46:44.858Z,-3.62
2022-12-18T02:52:08.683Z,-3.61
2022-12-18T02:57:39.032Z,-0.49
2022-12-18T03:02:48.201Z,1.04
2022-12-18T03:08:00.611Z,-1.58
2022-12-18T03:13:07.614Z,-3.62
2022-12-18T03:18:38.878Z,-4.49
2022-12-18T03:23:47.210Z,-2.40
2022-12-18T03:28:54.721Z,-0.52
2022-12-18T03:34:02.337Z,0.87
2022-12-18T03:39:05.549Z,2.02
2022-12-18T03:44:36.101Z,2.22
2022-12-18T03:49:58.257Z,2.91
2022-12-18T03:55:04.132Z,3.52
2022-12-18T04:00:11.806Z,3.96
2022-12-18T04:05:16.902Z,3.55
2022-12-18T04:10:20.214Z,3.42
2022-12-18T04:15:23.132Z,3.50
2022-12-18T04:20:26.021Z,3.65
2022-12-18T04:25:28.925Z,3.48
2022-12-18T04:30:31.932Z,3.06
2022-12-18T04:35:34.838Z,3.32
2022-12-18T04:40:38.933Z,3.34
2022-12-18T04:45:42.197Z,3.55
2022-12-18T04:50:45.205Z,3.73
2022-12-18T04:55:48.198Z,4.15
2022-12-18T05:00:51.101Z,4.42
2022-12-18T05:05:54.281Z,4.49
2022-12-18T05:11:06.737Z,4.58
2022-12-18T05:16:10.076Z,4.53
2022-12-18T05:21:12.959Z,4.67
2022-12-18T05:26:18.521Z,4.80
2022-12-18T05:31:21.489Z,5.05
2022-12-18T05:36:24.842Z,4.90
2022-12-18T05:41:29.202Z,1.90
2022-12-18T05:46:32.164Z,-0.71
2022-12-18T05:51:35.122Z,-2.34
2022-12-18T05:56:37.948Z,-1.41
2022-12-18T06:01:40.881Z,1.46
2022-12-18T06:06:44.005Z,2.51
2022-12-18T06:11:46.907Z,0.18
2022-12-18T06:16:52.664Z,-1.50
2022-12-18T06:21:55.684Z,-1.95
2022-12-18T06:26:58.589Z,0.65
2022-12-18T06:32:01.553Z,2.86
2022-12-18T06:37:05.011Z,2.54
2022-12-18T06:42:08.427Z,0.07
2022-12-18T06:47:11.740Z,-1.27
2022-12-18T06:52:17.619Z,0.82
2022-12-18T06:57:20.519Z,2.92
2022-12-18T07:02:23.509Z,1.66
2022-12-18T07:07:26.538Z,0.00
2022-12-18T07:12:29.437Z,2.37
2022-12-18T07:17:32.448Z,3.92
2022-12-18T07:22:35.345Z,2.04
2022-12-18T07:27:38.186Z,0.56
2022-12-18T07:32:41.158Z,2.56
2022-12-18T07:37:43.977Z,3.58
2022-12-18T07:42:47.004Z,1.12
2022-12-18T07:47:49.867Z,-0.59
2022-12-18T07:52:52.770Z,1.19
2022-12-18T07:58:00.857Z,3.18
2022-12-18T08:03:04.342Z,2.77
2022-12-18T08:08:07.629Z,0.21
2022-12-18T08:13:10.429Z,1.41
2022-12-18T08:18:14.579Z,3.36
2022-12-18T08:23:17.568Z,1.39
2022-12-18T08:28:20.452Z,0.90
2022-12-18T08:33:23.477Z,3.05
2022-12-18T08:38:26.382Z,2.42
2022-12-18T08:43:48.947Z,0.21
2022-12-18T08:48:53.428Z,2.13
2022-12-18T08:53:56.336Z,4.20
2022-12-18T08:58:59.399Z,2.83
2022-12-18T09:04:03.228Z,1.62
2022-12-18T09:09:07.258Z,3.64
2022-12-18T09:14:10.876Z,2.96
2022-12-18T09:19:13.885Z,0.91
2022-12-18T09:24:17.922Z,2.73
2022-12-18T09:29:20.926Z,2.75
2022-12-18T09:34:24.034Z,0.56
2022-12-18T09:39:26.943Z,0.87
2022-12-18T09:44:47.818Z,2.97
2022-12-18T09:49:56.194Z,2.10
2022-12-18T09:55:14.556Z,0.30
2022-12-18T10:00:24.119Z,2.39
2022-12-18T10:05:33.069Z,4.35
2022-12-18T10:10:53.478Z,3.95
2022-12-18T10:16:21.218Z,8.28
2022-12-18T10:21:38.915Z,9.93
2022-12-18T10:26:43.111Z,10.48
2022-12-18T10:31:45.951Z,11.53
2022-12-18T10:36:49.060Z,12.58
2022-12-18T10:41:52.988Z,11.75
2022-12-18T10:47:08.756Z,10.44
2022-12-18T10:52:23.168Z,10.81
2022-12-18T10:57:41.638Z,11.21
2022-12-18T11:02:44.783Z,12.37
2022-12-18T11:07:51.234Z,12.91
2022-12-18T11:12:54.242Z,13.90
2022-12-18T11:17:57.556Z,14.84
2022-12-18T11:23:14.490Z,15.47
2022-12-18T11:28:26.739Z,15.66
2022-12-18T11:33:29.725Z,15.54
2022-12-18T11:38:40.386Z,15.11
2022-12-18T11:43:52.247Z,14.11
2022-12-18T11:49:07.820Z,13.87
2022-12-18T11:54:15.845Z,13.44
2022-12-18T11:59:26.938Z,13.54
2022-12-18T12:04:45.613Z,13.05
2022-12-18T12:09:51.708Z,12.11
2022-12-18T12:15:25.420Z,11.19
2022-12-18T12:20:49.363Z,10.84
2022-12-18T12:26:07.276Z,10.73
2022-12-18T12:31:33.357Z,10.63
2022-12-18T12:36:45.545Z,10.18
2022-12-18T12:42:08.004Z,9.96
2022-12-18T12:47:33.520Z,10.01
2022-12-18T12:52:53.165Z,9.39
2022-12-18T12:58:16.220Z,9.12
2022-12-18T13:03:48.595Z,8.95
2022-12-18T13:08:57.784Z,8.09
2022-12-18T13:14:00.664Z,7.16
2022-12-18T13:19:04.080Z,6.40
2022-12-18T13:24:23.163Z,5.83
2022-12-18T13:29:46.806Z,5.29
2022-12-18T13:35:10.569Z,4.47
2022-12-18T13:40:47.902Z,3.28
2022-12-18T13:46:08.517Z,2.48
2022-12-18T13:51:20.121Z,1.64
2022-12-18T13:56:26.243Z,0.09
2022-12-18T14:01:31.090Z,-1.45
2022-12-18T14:06:34.035Z,-2.66
2022-12-18T14:11:38.466Z,-3.54
2022-12-18T14:16:43.940Z,-4.24
2022-12-18T14:21:50.710Z,-3.42
2022-12-18T14:26:53.626Z,-0.97
2022-12-18T14:32:25.677Z,-2.61
2022-12-18T14:37:28.562Z,-2.69
2022-12-18T14:42:31.605Z,-1.07
2022-12-18T14:47:34.483Z,-2.90
2022-12-18T14:52:37.347Z,-2.79
2022-12-18T14:57:43.345Z,-0.29
2022-12-18T15:02:54.371Z,-1.64
2022-12-18T15:08:00.483Z,-3.44
2022-12-18T15:13:04.429Z,-2.79
2022-12-18T15:18:13.092Z,-0.22
2022-12-18T15:23:18.917Z,0.53
2022-12-18T15:28:40.494Z,-1.80
2022-12-18T15:33:47.223Z,-2.58
2022-12-18T15:39:02.133Z,0.13
2022-12-18T15:44:25.773Z,0.25
2022-12-18T15:49:28.602Z,-1.96
2022-12-18T15:54:49.873Z,-3.31
2022-12-18T15:59:55.189Z,-2.06
2022-12-18T16:04:58.277Z,0.04
2022-12-18T16:10:02.421Z,-0.26
2022-12-18T16:15:07.177Z,-2.35
2022-12-18T16:20:21.874Z,-2.57
2022-12-18T16:25:27.511Z,-0.52
2022-12-18T16:30:37.908Z,-0.63
2022-12-18T16:35:41.532Z,-2.54
2022-12-18T16:41:03.621Z,-1.85
2022-12-18T16:46:06.469Z,-0.35
2022-12-18T16:51:09.347Z,-1.39
2022-12-18T16:56:12.162Z,-2.30
2022-12-18T17:01:15.189Z,-0.11
2022-12-18T17:06:18.056Z,-1.21
2022-12-18T17:11:21.822Z,-0.92
2022-12-18T17:16:25.768Z,0.50
2022-12-18T17:21:29.042Z,-1.30
2022-12-18T17:26:31.975Z,-0.93
2022-12-18T17:31:35.031Z,0.81
2022-12-18T17:36:37.891Z,-1.47
2022-12-18T17:41:40.766Z,-1.28
2022-12-18T17:46:44.253Z,-0.30
2022-12-18T17:51:47.484Z,-1.56
2022-12-18T17:56:50.435Z,0.59
2022-12-18T18:01:53.406Z,-0.29
2022-12-18T18:06:56.706Z,-2.34
2022-12-18T18:12:17.845Z,-1.62
2022-12-18T18:17:20.887Z,0.92
2022-12-18T18:22:24.027Z,1.12
2022-12-18T18:27:27.447Z,-1.49
2022-12-18T18:32:30.447Z,-2.79
2022-12-18T18:37:34.276Z,-1.22
2022-12-18T18:42:37.088Z,0.53
2022-12-18T18:47:40.033Z,-0.91
2022-12-18T18:52:42.908Z,-3.03
2022-12-18T18:57:47.381Z,-4.30
2022-12-18T19:02:50.454Z,-3.59
2022-12-18T19:07:53.515Z,-1.50
2022-12-18T19:13:14.710Z,-0.35
2022-12-18T19:18:17.870Z,1.37
2022-12-18T19:23:20.967Z,2.59
2022-12-18T19:28:26.387Z,3.31
2022-12-18T19:33:48.178Z,3.75
2022-12-18T19:38:52.540Z,3.99
2022-12-18T19:43:55.573Z,4.08
2022-12-18T19:49:00.087Z,4.14
2022-12-18T19:54:03.836Z,4.02
2022-12-18T19:59:06.823Z,3.75
2022-12-18T20:04:09.791Z,3.57
2022-12-18T20:09:12.878Z,3.29
2022-12-18T20:14:19.604Z,3.29
2022-12-18T20:19:27.248Z,3.15
2022-12-18T20:24:30.144Z,3.08
2022-12-18T20:29:33.350Z,3.05
2022-12-18T20:34:36.696Z,3.07
2022-12-18T20:39:40.375Z,3.11
2022-12-18T20:44:43.741Z,3.23
2022-12-18T20:49:46.597Z,3.52
2022-12-18T20:54:49.476Z,3.90
2022-12-18T20:59:52.433Z,4.28
2022-12-18T21:04:55.229Z,4.54
2022-12-18T21:09:58.109Z,4.80
2022-12-18T21:15:01.944Z,4.65
2022-12-18T21:20:05.227Z,4.39
2022-12-18T21:25:09.920Z,4.26
2022-12-18T21:30:14.650Z,4.07
2022-12-18T21:35:17.852Z,3.85
2022-12-18T21:40:22.851Z,3.80
2022-12-18T21:45:26.127Z,3.62
2022-12-18T21:50:28.971Z,3.52
2022-12-18T21:55:31.936Z,3.43
2022-12-18T22:00:34.755Z,3.45
2022-12-18T22:05:37.629Z,3.49
2022-12-18T22:10:40.667Z,3.59
2022-12-18T22:15:44.093Z,3.88
2022-12-18T22:20:47.845Z,4.16
2022-12-18T22:25:50.664Z,4.25
2022-12-18T22:30:59.012Z,4.20
2022-12-18T22:36:06.941Z,3.89
2022-12-18T22:41:09.785Z,3.57
2022-12-18T22:46:17.853Z,3.71
2022-12-18T22:51:21.109Z,3.56
2022-12-18T22:56:24.111Z,3.23
2022-12-18T23:01:29.841Z,3.30
2022-12-18T23:06:32.731Z,3.51
2022-12-18T23:11:35.588Z,3.66
2022-12-18T23:16:38.470Z,3.64
2022-12-18T23:21:41.738Z,3.05
2022-12-18T23:26:44.633Z,2.91
2022-12-18T23:31:47.523Z,3.12
2022-12-18T23:36:54.614Z,3.23
2022-12-18T23:41:59.306Z,3.25
2022-12-18T23:47:03.601Z,3.40
2022-12-18T23:52:06.822Z,3.22
2022-12-18T23:57:09.665Z,3.33
